createdAt,value
2024-02-14T00:00:36.091Z,-0.07
2024-02-14T00:03:05.809Z,-0.03
2024-02-14T00:05:36.131Z,-0.07
2024-02-14T00:08:07.112Z,-0.08
2024-02-14T00:10:36.684Z,-0.11
2024-02-14T00:13:09.783Z,-0.31
2024-02-14T00:15:39.996Z,-0.25
2024-02-14T00:18:10.983Z,-0.25
2024-02-14T00:20:41.004Z,-0.28
2024-02-14T00:23:11.581Z,-0.32
2024-02-14T00:25:41.250Z,-0.24
2024-02-14T00:28:16.062Z,-0.20
2024-02-14T00:30:47.096Z,-0.16
2024-02-14T00:33:16.820Z,-0.15
2024-02-14T00:35:47.765Z,-0.46
2024-02-14T00:38:17.097Z,-0.33
2024-02-14T00:40:47.114Z,-0.37
2024-02-14T00:43:17.946Z,-0.33
2024-02-14T00:45:47.662Z,-0.34
2024-02-14T00:48:17.514Z,-0.24
2024-02-14T00:50:48.300Z,-0.22
2024-02-14T00:53:18.560Z,-0.24
2024-02-14T00:55:48.725Z,-0.23
2024-02-14T00:58:20.597Z,-0.30
2024-02-14T01:00:50.613Z,-0.29
2024-02-14T01:03:20.235Z,-0.51
2024-02-14T01:05:50.874Z,-0.29
2024-02-14T01:08:20.624Z,-0.24
2024-02-14T01:10:52.620Z,-0.53
2024-02-14T01:13:24.478Z,-0.25
2024-02-14T01:15:54.990Z,-0.23
2024-02-14T01:18:26.257Z,-0.24
2024-02-14T01:20:57.490Z,-0.25
2024-02-14T01:23:27.458Z,-0.35
2024-02-14T01:25:57.991Z,-0.37
2024-02-14T01:28:28.705Z,-0.42
2024-02-14T01:30:59.590Z,-0.32
2024-02-14T01:33:33.210Z,-0.29
2024-02-14T01:36:03.460Z,-0.32
2024-02-14T01:38:35.288Z,-0.32
2024-02-14T01:41:06.187Z,-0.33
2024-02-14T01:43:37.190Z,-0.31
2024-02-14T01:46:09.012Z,-0.35
2024-02-14T01:48:42.091Z,-0.36
2024-02-14T01:51:12.763Z,-0.38
2024-02-14T01:53:44.868Z,-0.45
2024-02-14T01:56:15.093Z,-0.43
2024-02-14T01:58:46.668Z,-0.45
2024-02-14T02:01:16.496Z,-0.39
2024-02-14T02:03:49.246Z,-0.40
2024-02-14T02:06:20.221Z,-0.46
2024-02-14T02:08:51.313Z,-0.41
2024-02-14T02:11:24.142Z,-0.37
2024-02-14T02:13:55.207Z,-0.41
2024-02-14T02:16:25.297Z,-0.37
2024-02-14T02:18:56.631Z,-0.41
2024-02-14T02:21:27.476Z,-0.46
2024-02-14T02:23:58.608Z,-0.58
2024-02-14T02:26:27.808Z,-0.50
2024-02-14T02:28:57.720Z,-0.51
2024-02-14T02:31:26.989Z,-0.50
2024-02-14T02:33:57.715Z,-0.49
2024-02-14T02:36:31.564Z,-0.49
2024-02-14T02:39:03.743Z,-0.48
2024-02-14T02:41:34.794Z,-0.47
2024-02-14T02:44:08.428Z,-0.48
2024-02-14T02:46:38.041Z,-0.55
2024-02-14T02:49:08.732Z,-0.50
2024-02-14T02:51:39.201Z,-0.67
2024-02-14T02:54:10.311Z,-0.58
2024-02-14T02:56:39.570Z,-0.48
2024-02-14T02:59:09.637Z,-0.46
2024-02-14T03:01:39.825Z,-0.41
2024-02-14T03:04:11.971Z,-0.40
2024-02-14T03:06:40.887Z,-0.37
2024-02-14T03:09:11.782Z,-0.35
2024-02-14T03:11:42.667Z,-0.34
2024-02-14T03:14:13.658Z,-0.36
2024-02-14T03:16:43.443Z,-0.33
2024-02-14T03:19:14.146Z,-0.29
2024-02-14T03:21:45.049Z,-0.29
2024-02-14T03:24:18.821Z,-0.29
2024-02-14T03:26:49.765Z,-0.23
2024-02-14T03:29:21.464Z,-0.23
2024-02-14T03:31:51.872Z,-0.22
2024-02-14T03:34:22.875Z,-0.49
2024-02-14T03:36:52.945Z,-0.24
2024-02-14T03:39:24.021Z,-0.25
2024-02-14T03:41:54.492Z,-0.30
2024-02-14T03:44:23.579Z,-0.16
2024-02-14T03:46:53.503Z,-0.16
2024-02-14T03:49:23.182Z,-0.14
2024-02-14T03:51:56.229Z,-0.16
2024-02-14T03:54:27.118Z,-0.18
2024-02-14T03:56:57.243Z,-0.21
2024-02-14T03:59:26.582Z,-0.25
2024-02-14T04:01:59.825Z,-0.30
2024-02-14T04:04:29.189Z,-0.29
2024-02-14T04:07:00.320Z,-0.28
2024-02-14T04:09:31.053Z,-0.27
2024-02-14T04:12:00.138Z,-0.27
2024-02-14T04:14:29.534Z,-0.31
2024-02-14T04:16:59.222Z,-0.30
2024-02-14T04:19:28.370Z,-0.31
2024-02-14T04:21:58.418Z,-0.37
2024-02-14T04:24:28.220Z,-0.45
2024-02-14T04:26:59.014Z,-0.57
2024-02-14T04:29:29.943Z,-0.52
2024-02-14T04:31:59.213Z,-0.49
2024-02-14T04:34:29.337Z,-0.59
2024-02-14T04:36:59.503Z,-0.48
2024-02-14T04:39:29.077Z,-0.47
2024-02-14T04:42:02.797Z,-0.49
2024-02-14T04:44:33.133Z,-0.42
2024-02-14T04:47:02.680Z,-0.44
2024-02-14T04:49:33.074Z,-0.37
2024-02-14T04:52:03.336Z,-0.39
2024-02-14T04:54:34.185Z,-0.41
2024-02-14T04:57:05.980Z,-0.44
2024-02-14T04:59:35.603Z,-0.49
2024-02-14T05:02:05.156Z,-0.45
2024-02-14T05:04:36.604Z,-0.46
2024-02-14T05:07:05.891Z,-0.45
2024-02-14T05:09:35.005Z,-0.42
2024-02-14T05:12:06.138Z,-0.43
2024-02-14T05:14:35.556Z,-0.44
2024-02-14T05:17:06.879Z,-0.44
2024-02-14T05:19:37.485Z,-0.47
2024-02-14T05:22:07.485Z,-0.50
2024-02-14T05:24:38.969Z,-0.58
2024-02-14T05:27:10.538Z,-0.56
2024-02-14T05:29:40.420Z,-0.65
2024-02-14T05:32:14.607Z,-0.68
2024-02-14T05:34:48.913Z,-0.76
2024-02-14T05:37:22.638Z,-0.64
2024-02-14T05:39:54.293Z,-0.62
2024-02-14T05:42:28.234Z,-0.61
2024-02-14T05:44:59.989Z,-0.67
2024-02-14T05:47:35.453Z,-0.66
2024-02-14T05:50:07.581Z,-0.63
2024-02-14T05:52:38.164Z,-0.61
2024-02-14T05:55:11.642Z,-0.60
2024-02-14T05:57:44.293Z,-0.58
2024-02-14T06:02:49.693Z,-0.57
2024-02-14T06:05:22.410Z,-0.61
2024-02-14T06:07:56.124Z,-0.65
2024-02-14T06:10:29.378Z,-0.66
2024-02-14T06:13:04.625Z,-0.65
2024-02-14T06:15:36.066Z,-0.63
2024-02-14T06:18:08.766Z,-0.60
2024-02-14T06:20:42.624Z,-0.53
2024-02-14T06:23:13.266Z,-0.48
2024-02-14T06:25:42.077Z,-0.42
2024-02-14T06:28:15.608Z,-0.36
2024-02-14T06:30:49.075Z,-0.45
2024-02-14T06:33:22.006Z,-0.25
2024-02-14T06:35:56.152Z,-0.22
2024-02-14T06:38:27.835Z,-0.17
2024-02-14T06:41:02.376Z,-0.09
2024-02-14T06:43:35.312Z,0.02
2024-02-14T06:46:06.556Z,0.18
2024-02-14T06:48:37.893Z,0.31
2024-02-14T06:51:11.912Z,0.40
2024-02-14T06:53:44.876Z,0.55
2024-02-14T06:56:17.492Z,0.69
2024-02-14T06:58:54.557Z,0.71
2024-02-14T07:01:28.544Z,0.69
2024-02-14T07:04:04.537Z,0.72
2024-02-14T07:06:38.206Z,0.57
2024-02-14T07:09:08.785Z,0.64
2024-02-14T07:11:40.073Z,0.73
2024-02-14T07:14:12.356Z,0.86
2024-02-14T07:16:47.357Z,0.96
2024-02-14T07:19:18.139Z,0.98
2024-02-14T07:21:49.086Z,1.05
2024-02-14T07:24:21.969Z,1.18
2024-02-14T07:26:52.526Z,1.28
2024-02-14T07:29:24.310Z,1.35
2024-02-14T07:31:55.999Z,1.41
2024-02-14T07:34:27.398Z,1.50
2024-02-14T07:36:56.938Z,1.52
2024-02-14T07:39:27.502Z,1.55
2024-02-14T07:41:59.419Z,1.61
2024-02-14T07:44:32.759Z,1.70
2024-02-14T07:47:04.314Z,1.83
2024-02-14T07:49:37.302Z,1.89
2024-02-14T07:52:11.553Z,2.01
2024-02-14T07:54:42.165Z,2.11
2024-02-14T07:57:14.039Z,2.29
2024-02-14T07:59:46.716Z,2.43
2024-02-14T08:02:21.357Z,2.52
2024-02-14T08:04:53.406Z,2.53
2024-02-14T08:07:27.908Z,2.62
2024-02-14T08:10:00.980Z,2.62
2024-02-14T08:12:33.705Z,2.57
2024-02-14T08:15:08.842Z,2.65
2024-02-14T08:17:40.030Z,2.68
2024-02-14T08:20:12.071Z,2.74
2024-02-14T08:22:41.154Z,2.83
2024-02-14T08:25:12.725Z,2.93
2024-02-14T08:27:42.626Z,2.99
2024-02-14T08:30:15.262Z,3.06
2024-02-14T08:32:47.371Z,3.16
2024-02-14T08:35:24.089Z,3.25
2024-02-14T08:37:57.892Z,3.31
2024-02-14T08:40:30.542Z,3.52
2024-02-14T08:43:01.309Z,3.64
2024-02-14T08:45:34.492Z,3.79
2024-02-14T08:48:05.243Z,3.89
2024-02-14T08:50:36.749Z,3.95
2024-02-14T08:53:08.494Z,3.97
2024-02-14T08:55:39.965Z,3.99
2024-02-14T08:58:13.655Z,4.13
2024-02-14T09:00:44.632Z,4.26
2024-02-14T09:03:14.110Z,4.64
2024-02-14T09:05:44.570Z,4.88
2024-02-14T09:08:14.941Z,5.58
2024-02-14T09:10:47.720Z,7.88
2024-02-14T09:13:18.680Z,10.45
2024-02-14T09:15:52.337Z,12.26
2024-02-14T09:18:26.376Z,14.00
2024-02-14T09:20:58.878Z,15.09
2024-02-14T09:23:28.881Z,14.43
2024-02-14T09:25:59.145Z,14.78
2024-02-14T09:28:30.035Z,15.85
2024-02-14T09:31:01.900Z,16.89
2024-02-14T09:33:32.683Z,18.10
2024-02-14T09:36:02.875Z,18.50
2024-02-14T09:38:33.638Z,19.05
2024-02-14T09:41:15.427Z,19.28
2024-02-14T09:43:47.589Z,18.75
2024-02-14T09:46:19.616Z,18.71
2024-02-14T09:48:50.095Z,18.63
2024-02-14T09:51:24.443Z,16.99
2024-02-14T09:53:57.419Z,15.66
2024-02-14T09:56:29.064Z,15.24
2024-02-14T09:58:59.066Z,14.81
2024-02-14T10:01:31.289Z,16.38
2024-02-14T10:04:01.051Z,17.89
2024-02-14T10:06:32.956Z,18.49
2024-02-14T10:09:04.969Z,20.11
2024-02-14T10:11:36.253Z,20.90
2024-02-14T10:14:06.245Z,20.67
2024-02-14T10:16:39.447Z,19.49
2024-02-14T10:19:11.522Z,18.15
2024-02-14T10:21:43.504Z,17.29
2024-02-14T10:24:14.051Z,17.24
2024-02-14T10:26:44.739Z,17.04
2024-02-14T10:29:22.469Z,16.32
2024-02-14T10:31:54.316Z,16.24
2024-02-14T10:34:30.806Z,16.29
2024-02-14T10:37:02.110Z,14.96
2024-02-14T10:39:33.529Z,14.43
2024-02-14T10:42:05.043Z,13.78
2024-02-14T10:44:35.205Z,13.08
2024-02-14T10:47:09.976Z,12.69
2024-02-14T10:49:41.187Z,12.12
2024-02-14T10:52:11.600Z,11.63
2024-02-14T10:54:42.412Z,11.27
2024-02-14T10:57:13.614Z,11.15
2024-02-14T10:59:47.422Z,11.06
2024-02-14T11:02:20.132Z,10.95
2024-02-14T11:04:54.589Z,10.93
2024-02-14T11:07:26.030Z,11.00
2024-02-14T11:10:08.707Z,11.22
2024-02-14T11:12:40.779Z,11.66
2024-02-14T11:15:14.594Z,11.48
2024-02-14T11:17:46.945Z,11.54
2024-02-14T11:20:21.586Z,11.33
2024-02-14T11:22:57.993Z,11.28
2024-02-14T11:25:35.622Z,10.91
2024-02-14T11:28:19.429Z,10.71
2024-02-14T11:30:50.069Z,10.45
2024-02-14T11:33:25.725Z,10.30
2024-02-14T11:35:56.960Z,10.36
2024-02-14T11:38:28.082Z,10.22
2024-02-14T11:40:58.593Z,10.22
2024-02-14T11:43:28.502Z,9.72
2024-02-14T11:45:58.116Z,9.72
2024-02-14T11:48:30.756Z,9.74
2024-02-14T11:51:00.265Z,9.76
2024-02-14T11:53:30.282Z,9.77
2024-02-14T11:56:00.832Z,9.53
2024-02-14T11:58:30.209Z,9.40
2024-02-14T12:00:59.752Z,9.42
2024-02-14T12:03:32.179Z,9.47
2024-02-14T12:06:01.963Z,9.34
2024-02-14T12:08:32.979Z,9.27
2024-02-14T12:11:04.686Z,9.22
2024-02-14T12:13:39.532Z,9.15
2024-02-14T12:16:10.026Z,9.17
2024-02-14T12:18:41.597Z,9.05
2024-02-14T12:21:11.574Z,9.02
2024-02-14T12:23:39.996Z,9.15
2024-02-14T12:26:16.522Z,9.25
2024-02-14T12:28:51.298Z,9.44
2024-02-14T12:31:29.116Z,9.71
2024-02-14T12:34:01.289Z,10.13
2024-02-14T12:36:34.299Z,10.44
2024-02-14T12:39:04.987Z,10.98
2024-02-14T12:41:38.648Z,11.49
2024-02-14T12:44:08.966Z,11.96
2024-02-14T12:46:40.030Z,12.49
2024-02-14T12:49:11.489Z,13.10
2024-02-14T12:51:41.692Z,13.25
2024-02-14T12:54:13.923Z,14.17
2024-02-14T12:56:44.306Z,14.76
2024-02-14T12:59:20.723Z,16.01
2024-02-14T13:01:50.895Z,16.07
2024-02-14T13:04:23.103Z,15.43
2024-02-14T13:06:53.098Z,16.09
2024-02-14T13:09:23.159Z,15.95
2024-02-14T13:11:56.224Z,16.53
2024-02-14T13:14:26.548Z,16.50
2024-02-14T13:16:56.827Z,17.29
2024-02-14T13:19:31.956Z,16.68
2024-02-14T13:22:04.518Z,15.71
2024-02-14T13:24:35.021Z,14.69
2024-02-14T13:27:05.529Z,13.82
2024-02-14T13:29:47.034Z,13.45
2024-02-14T13:32:17.986Z,14.22
2024-02-14T13:34:49.729Z,14.26
2024-02-14T13:37:19.612Z,14.31
2024-02-14T13:39:49.250Z,13.29
2024-02-14T13:42:19.183Z,12.55
2024-02-14T13:44:51.580Z,12.02
2024-02-14T13:47:22.845Z,11.73
2024-02-14T13:49:56.981Z,11.69
2024-02-14T13:52:26.412Z,11.62
2024-02-14T13:54:56.583Z,11.00
2024-02-14T13:57:28.955Z,10.98
2024-02-14T13:59:59.513Z,10.73
2024-02-14T14:02:29.480Z,10.40
2024-02-14T14:05:01.213Z,10.18
2024-02-14T14:07:31.404Z,10.11
2024-02-14T14:10:03.422Z,10.29
2024-02-14T14:12:33.730Z,10.23
2024-02-14T14:15:05.559Z,10.27
2024-02-14T14:17:35.232Z,10.39
2024-02-14T14:20:09.752Z,10.34
2024-02-14T14:22:39.831Z,10.27
2024-02-14T14:25:11.259Z,10.12
2024-02-14T14:27:40.306Z,10.04
2024-02-14T14:30:10.033Z,9.99
2024-02-14T14:32:40.646Z,9.92
2024-02-14T14:35:13.669Z,9.96
2024-02-14T14:37:42.803Z,9.95
2024-02-14T14:40:13.824Z,9.88
2024-02-14T14:42:43.336Z,9.93
2024-02-14T14:45:12.296Z,9.94
2024-02-14T14:47:41.261Z,9.94
2024-02-14T14:50:12.845Z,9.92
2024-02-14T14:52:45.192Z,9.80
2024-02-14T14:55:14.924Z,9.71
2024-02-14T14:57:44.746Z,9.70
2024-02-14T15:00:14.623Z,9.67
2024-02-14T15:06:33.944Z,9.41
2024-02-14T15:09:03.334Z,9.40
2024-02-14T15:11:34.150Z,9.36
2024-02-14T15:14:03.086Z,9.46
2024-02-14T15:16:32.815Z,9.44
2024-02-14T15:19:03.831Z,9.51
2024-02-14T15:21:35.436Z,9.45
2024-02-14T15:24:06.788Z,9.48
2024-02-14T15:26:51.383Z,9.49
2024-02-14T15:29:39.989Z,9.49
2024-02-14T15:32:27.326Z,9.41
2024-02-14T15:34:57.310Z,9.45
2024-02-14T15:37:28.974Z,9.49
2024-02-14T15:40:00.397Z,9.48
2024-02-14T15:42:29.559Z,9.40
2024-02-14T15:45:00.379Z,9.39
2024-02-14T15:47:29.943Z,9.29
2024-02-14T15:50:00.329Z,9.41
2024-02-14T15:52:33.198Z,9.34
2024-02-14T15:55:02.451Z,9.27
2024-02-14T15:57:32.510Z,9.24
2024-02-14T16:00:03.010Z,9.15
2024-02-14T16:02:32.651Z,8.98
2024-02-14T16:05:04.665Z,9.03
2024-02-14T16:07:36.292Z,8.95
2024-02-14T16:10:07.183Z,8.58
2024-02-14T16:12:36.810Z,8.82
2024-02-14T16:15:07.547Z,8.27
2024-02-14T16:17:37.476Z,8.63
2024-02-14T16:20:09.528Z,8.55
2024-02-14T16:22:42.207Z,8.47
2024-02-14T16:25:14.250Z,8.41
2024-02-14T16:27:47.439Z,8.31
2024-02-14T16:30:18.655Z,8.21
2024-02-14T16:32:51.566Z,8.13
2024-02-14T16:35:24.817Z,8.03
2024-02-14T16:37:56.119Z,8.01
2024-02-14T16:40:29.007Z,7.95
2024-02-14T16:43:01.413Z,7.88
2024-02-14T16:45:33.473Z,7.84
2024-02-14T16:48:04.575Z,7.74
2024-02-14T16:50:36.223Z,7.67
2024-02-14T16:53:09.953Z,7.61
2024-02-14T16:55:42.216Z,7.42
2024-02-14T16:58:16.332Z,7.30
2024-02-14T17:00:47.477Z,7.20
2024-02-14T17:03:23.704Z,7.09
2024-02-14T17:05:56.544Z,6.97
2024-02-14T17:08:28.962Z,6.92
2024-02-14T17:10:58.968Z,6.89
2024-02-14T17:13:30.611Z,6.91
2024-02-14T17:16:02.466Z,6.90
2024-02-14T17:18:33.229Z,6.92
2024-02-14T17:21:02.445Z,6.90
2024-02-14T17:23:34.517Z,7.02
2024-02-14T17:26:05.344Z,7.08
2024-02-14T17:28:35.258Z,7.09
2024-02-14T17:31:08.278Z,7.14
2024-02-14T17:33:39.270Z,7.13
2024-02-14T17:36:09.171Z,7.06
2024-02-14T17:38:40.494Z,7.04
2024-02-14T17:41:11.215Z,7.08
2024-02-14T17:43:42.992Z,7.11
2024-02-14T17:46:15.519Z,7.15
2024-02-14T17:48:48.436Z,7.17
2024-02-14T17:51:28.114Z,7.19
2024-02-14T17:54:06.854Z,7.22
2024-02-14T17:56:38.668Z,7.24
2024-02-14T17:59:08.888Z,7.27
2024-02-14T18:01:43.134Z,7.25
2024-02-14T18:04:14.454Z,7.26
2024-02-14T18:06:44.997Z,7.23
2024-02-14T18:09:20.818Z,7.19
2024-02-14T18:11:50.663Z,7.17
2024-02-14T18:14:22.004Z,7.12
2024-02-14T18:16:51.599Z,7.10
2024-02-14T18:19:24.089Z,7.17
2024-02-14T18:21:56.163Z,7.25
2024-02-14T18:24:30.240Z,7.27
2024-02-14T18:27:02.644Z,7.31
2024-02-14T18:29:36.090Z,7.32
2024-02-14T18:32:10.529Z,7.23
2024-02-14T18:34:42.913Z,7.34
2024-02-14T18:37:14.604Z,7.36
2024-02-14T18:39:45.738Z,7.39
2024-02-14T18:42:21.179Z,7.40
2024-02-14T18:44:54.282Z,7.42
2024-02-14T18:47:22.991Z,7.38
2024-02-14T18:50:04.062Z,7.41
2024-02-14T18:52:34.895Z,7.38
2024-02-14T18:55:06.888Z,7.53
2024-02-14T18:57:36.689Z,7.41
2024-02-14T19:00:11.791Z,7.58
2024-02-14T19:02:44.410Z,7.57
2024-02-14T19:05:16.390Z,7.60
2024-02-14T19:07:46.070Z,7.61
2024-02-14T19:10:18.336Z,7.56
2024-02-14T19:12:48.134Z,7.49
2024-02-14T19:15:17.547Z,7.41
2024-02-14T19:17:50.432Z,7.37
2024-02-14T19:20:23.376Z,7.30
2024-02-14T19:22:53.831Z,7.26
2024-02-14T19:25:27.187Z,7.20
2024-02-14T19:27:57.432Z,7.13
2024-02-14T19:30:26.730Z,7.11
2024-02-14T19:32:55.986Z,7.07
2024-02-14T19:35:25.694Z,7.04
2024-02-14T19:37:56.795Z,7.01
2024-02-14T19:40:28.414Z,7.00
2024-02-14T19:42:57.566Z,7.01
2024-02-14T19:45:27.307Z,6.96
2024-02-14T19:47:57.834Z,6.91
2024-02-14T19:50:27.626Z,6.91
2024-02-14T19:52:59.821Z,6.92
2024-02-14T19:55:32.169Z,6.92
2024-02-14T19:58:01.820Z,6.86
2024-02-14T20:00:33.487Z,6.78
2024-02-14T20:03:04.525Z,6.77
2024-02-14T20:05:36.897Z,6.75
2024-02-14T20:08:08.881Z,6.72
2024-02-14T20:10:40.614Z,6.63
2024-02-14T20:13:10.503Z,6.60
2024-02-14T20:15:40.418Z,6.57
2024-02-14T20:18:13.157Z,6.46
2024-02-14T20:20:45.153Z,6.39
2024-02-14T20:23:16.553Z,6.23
2024-02-14T20:25:47.968Z,6.13
2024-02-14T20:28:22.463Z,6.05
2024-02-14T20:30:52.957Z,5.99
2024-02-14T20:33:26.089Z,5.91
2024-02-14T20:35:56.332Z,5.84
2024-02-14T20:38:25.783Z,5.73
2024-02-14T20:40:58.446Z,5.74
2024-02-14T20:43:29.367Z,5.58
2024-02-14T20:46:01.455Z,5.50
2024-02-14T20:48:31.908Z,5.44
2024-02-14T20:51:01.918Z,5.31
2024-02-14T20:53:31.731Z,5.27
2024-02-14T20:56:05.387Z,5.25
2024-02-14T20:58:43.022Z,5.13
2024-02-14T21:01:23.149Z,5.02
2024-02-14T21:03:55.827Z,4.95
2024-02-14T21:06:27.058Z,4.85
2024-02-14T21:08:59.409Z,4.74
2024-02-14T21:11:31.378Z,4.72
2024-02-14T21:14:00.984Z,4.69
2024-02-14T21:16:30.275Z,4.63
2024-02-14T21:18:59.430Z,4.50
2024-02-14T21:21:29.536Z,4.57
2024-02-14T21:23:59.655Z,4.49
2024-02-14T21:26:31.627Z,4.40
2024-02-14T21:29:00.868Z,4.43
2024-02-14T21:31:30.965Z,4.36
2024-02-14T21:34:00.857Z,4.39
2024-02-14T21:36:52.209Z,4.32
2024-02-14T21:39:22.002Z,4.31
2024-02-14T21:41:56.320Z,4.29
2024-02-14T21:44:29.322Z,4.18
2024-02-14T21:46:59.155Z,3.99
2024-02-14T21:49:29.652Z,4.11
2024-02-14T21:51:59.830Z,4.06
2024-02-14T21:54:29.084Z,4.03
2024-02-14T21:57:00.611Z,4.02
2024-02-14T21:59:31.550Z,3.98
2024-02-14T22:02:01.661Z,3.94
2024-02-14T22:04:31.599Z,3.91
2024-02-14T22:07:02.726Z,3.88
2024-02-14T22:09:32.344Z,3.91
2024-02-14T22:12:03.435Z,3.83
2024-02-14T22:14:33.358Z,3.88
2024-02-14T22:17:03.517Z,3.91
2024-02-14T22:19:35.145Z,3.90
2024-02-14T22:22:04.254Z,3.71
2024-02-14T22:24:33.681Z,3.78
2024-02-14T22:27:04.641Z,3.82
2024-02-14T22:29:34.051Z,3.73
2024-02-14T22:32:04.482Z,3.51
2024-02-14T22:34:34.086Z,3.72
2024-02-14T22:37:04.820Z,3.68
2024-02-14T22:39:34.538Z,3.65
2024-02-14T22:42:05.939Z,3.63
2024-02-14T22:44:46.659Z,3.51
2024-02-14T22:47:15.876Z,3.58
2024-02-14T22:49:45.322Z,3.57
2024-02-14T22:52:15.162Z,3.52
2024-02-14T22:54:45.740Z,3.52
2024-02-14T22:57:16.713Z,3.29
2024-02-14T22:59:46.232Z,3.47
2024-02-14T23:02:15.790Z,3.42
2024-02-14T23:04:45.061Z,3.43
2024-02-14T23:07:15.552Z,3.45
2024-02-14T23:09:45.392Z,3.38
2024-02-14T23:12:17.814Z,3.34
2024-02-14T23:14:48.994Z,3.35
2024-02-14T23:17:20.814Z,3.36
2024-02-14T23:19:51.217Z,3.34
2024-02-14T23:22:20.586Z,3.45
2024-02-14T23:24:51.058Z,3.50
2024-02-14T23:27:22.598Z,3.33
2024-02-14T23:29:55.147Z,3.56
2024-02-14T23:32:24.665Z,3.56
2024-02-14T23:34:55.223Z,3.51
2024-02-14T23:37:25.276Z,3.50
2024-02-14T23:39:54.730Z,3.35
2024-02-14T23:42:27.267Z,3.38
2024-02-14T23:44:57.138Z,3.36
2024-02-14T23:47:26.495Z,3.33
2024-02-14T23:49:55.698Z,3.33
2024-02-14T23:52:25.661Z,3.32
2024-02-14T23:54:55.380Z,3.30
2024-02-14T23:57:26.127Z,3.29
2024-02-14T23:59:56.597Z,3.29
